Aérodrome :
LOGIN :

S'inscrire | Disclaimer

   EN    FR    IT 

 










Légende :    VFR   VFR Marginal   IFR   IFR Intensif   IFR Très Intensif
Visi : 
Plafond : 
>= 8 km
>= 3000ft
5 à 8 km
1000 à 3000 ft
1500m à 5 km
500 à 1000 ft
800 à 1500m
200 à 500 ft
< 800m
< 200 ft
Symboles :   Orages  Brouillard  Fortes neiges  Fortes précipitations  Vent > 20 kt
SIGMETs :   Divers  Orages  Givrage  Turbulence  Onde Orograph.  Cendres Volcan.






- Altitude de l'aérodrome : 614 ft
- Code IATA : CRL


EBCI - Charleroi

DERNIER METAR :
  • 291750Z 21012KT 9000 BKN014 01/M02 Q1025 NOSIG

METARs EXPIRÉS :
  • 291720Z 21011KT 9999 BKN015 01/M03 Q1025 BECMG BKN013
  • 291650Z 22011KT 9999 BKN016 01/M03 Q1026 NOSIG
  • 291620Z 22011KT 9999 BKN018 01/M03 Q1026 NOSIG
  • 291550Z 21010KT 9000 BKN018 01/M03 Q1025 NOSIG
  • 291520Z 21010KT 9999 BKN020 01/M03 Q1026 NOSIG

TAF TAF EBCI
Valide du 29 à 18h jusqu'au 31 à 00h UTC


291720Z 2918/3024 22008KT 9999 BKN020
TEMPO 2919/3009 3500 -RADZ BKN010
PROB40
TEMPO 2921/3009 22016G27KT 2000 -DZRA BKN004
BECMG 3008/3010 30012KT



MET'MAP, la Météo Aéronautique d'un coup d'oeil ! - Copyright ORBIFLY Décembre 2007 - Disclaimer

ORBIFLY MET'MAP TEAM :

Programmation & Développement : Alexandra Zaïnal
Sur une idée originale de : Baudouin d'Aumeries
Soutien technique & logistique : Manuel Goepfert
Assistance : Marc-Olivier Méhu




SOURCES & CREDITS :

   NOAA